Time;durP1;ratioP1;P1;durP2;ratioP2;P2;SDS_P1;SDS_P2;PMS_P1;PMS_P2;Temp;Humidity;BMP_temperature;BMP_pressure;BME280_temperature;BME280_humidity;BME280_pressure;Samples;Min_cycle;Max_cycle;Signal;HPM_P1;HPM_P2
2024/02/12 00:00:19;;;;;;;25.90;16.33;;;10.40;99.90;;;10.69;94.65;99624.94;5052460;28;20554;-67
2024/02/12 00:02:49;;;;;;;21.27;16.02;;;10.40;99.90;;;10.71;94.75;99639.00;5035144;28;20049;-67
2024/02/12 00:05:18;;;;;;;25.33;16.83;;;10.40;99.90;;;10.62;94.77;99636.59;5052640;28;20110;-67
2024/02/12 00:07:48;;;;;;;28.40;17.75;;;10.30;99.90;;;10.63;95.06;99640.97;5052628;28;20052;-67
2024/02/12 00:10:16;;;;;;;29.38;18.17;;;10.30;99.90;;;10.64;95.18;99656.81;5052595;28;20045;-66
2024/02/12 00:12:45;;;;;;;27.38;18.35;;;10.30;99.90;;;10.68;95.23;99658.44;5053236;28;20065;-67
2024/02/12 00:15:13;;;;;;;27.92;19.25;;;10.40;99.90;;;10.68;95.29;99661.09;5052782;28;20069;-67
2024/02/12 00:17:42;;;;;;;36.00;20.33;;;10.40;99.90;;;10.66;95.54;99655.00;5052735;28;20041;-67
2024/02/12 00:20:16;;;;;;;27.30;19.00;;;10.40;99.90;;;10.69;95.70;99651.38;5052398;28;20646;-67
2024/02/12 00:22:47;;;;;;;36.13;19.88;;;10.40;99.90;;;10.77;95.81;99644.13;5052903;28;20095;-67
2024/02/12 00:25:16;;;;;;;;;;;10.50;99.90;;;10.83;95.76;99646.63;5054642;28;20123;-67
2024/02/12 00:27:44;;;;;;;35.83;21.27;;;10.60;99.90;;;10.87;95.72;99653.59;5054834;28;19921;-67
2024/02/12 00:30:14;;;;;;;35.72;21.00;;;10.60;99.90;;;10.90;95.45;99653.50;5054124;28;20497;-67
2024/02/12 00:32:44;;;;;;;33.47;21.10;;;10.60;99.90;;;10.88;95.58;99656.19;5054231;28;20098;-67
2024/02/12 00:35:15;;;;;;;29.85;20.80;;;10.60;99.90;;;10.89;95.51;99651.78;5053402;28;20056;-67
2024/02/12 00:37:44;;;;;;;37.63;21.70;;;10.70;99.90;;;10.94;95.46;99660.44;5054001;28;20049;-67
2024/02/12 00:40:15;;;;;;;35.83;21.27;;;10.70;99.90;;;10.94;95.13;99671.03;5053914;28;20048;-67
2024/02/12 00:42:44;;;;;;;32.58;21.50;;;10.70;99.90;;;10.96;95.45;99669.22;5054139;28;20379;-67
2024/02/12 00:45:14;;;;;;;37.28;22.85;;;10.70;99.90;;;10.93;95.66;99673.72;5036198;28;20048;-67
2024/02/12 00:47:43;;;;;;;32.13;21.02;;;10.70;99.90;;;10.98;95.61;99677.09;5053295;28;20049;-67
2024/02/12 00:50:13;;;;;;;36.70;22.77;;;10.70;99.90;;;10.95;95.65;99688.66;5053696;28;20048;-67
2024/02/12 00:52:41;;;;;;;37.03;23.13;;;10.70;99.90;;;10.96;95.66;99685.09;5035731;28;20103;-67
2024/02/12 00:55:13;;;;;;;38.45;23.73;;;10.70;99.90;;;10.96;95.59;99679.81;5053711;28;20087;-67
2024/02/12 00:57:42;;;;;;;38.95;22.08;;;10.70;99.90;;;11.01;95.70;99687.63;5053542;28;20056;-67
2024/02/12 01:00:13;;;;;;;37.45;22.75;;;10.70;99.90;;;10.96;95.64;99679.81;5053681;28;20102;-67
2024/02/12 01:02:42;;;;;;;35.03;23.02;;;10.70;99.90;;;11.02;95.92;99690.22;5035679;28;20103;-67
2024/02/12 01:05:13;;;;;;;37.55;22.92;;;10.70;99.90;;;11.04;95.62;99682.25;5035853;28;20486;-67
2024/02/12 01:07:42;;;;;;;35.47;22.63;;;10.70;99.90;;;11.04;95.51;99683.13;5053706;28;20049;-67
2024/02/12 01:10:13;;;;;;;37.72;23.08;;;10.70;99.90;;;11.04;95.35;99688.41;5052825;28;20041;-67
2024/02/12 01:12:43;;;;;;;37.65;23.25;;;10.70;99.90;;;11.05;95.47;99687.53;5053455;28;20106;-67
2024/02/12 01:15:12;;;;;;;38.72;23.90;;;10.70;99.90;;;11.02;95.31;99684.94;5053686;28;20045;-67
2024/02/12 01:17:41;;;;;;;34.28;23.08;;;10.80;99.90;;;11.09;95.18;99686.50;5053043;28;20053;-67
2024/02/12 01:20:18;;;;;;;35.80;23.35;;;10.80;99.90;;;11.13;94.83;99690.81;5053463;28;20064;-67
2024/02/12 01:22:46;;;;;;;37.53;23.13;;;10.80;99.90;;;11.17;94.50;99695.13;5053032;28;20033;-67
2024/02/12 01:25:17;;;;;;;35.30;23.17;;;10.90;99.90;;;11.17;94.33;99694.28;5053140;28;20045;-67
2024/02/12 01:27:46;;;;;;;38.08;24.33;;;10.90;99.90;;;11.16;94.28;99696.06;5053668;28;20131;-67
2024/02/12 01:30:15;;;;;;;33.90;23.65;;;10.90;99.90;;;11.17;94.27;99704.88;5053252;28;20056;-67
2024/02/12 01:32:43;;;;;;;37.28;23.52;;;10.90;99.90;;;11.16;94.13;99709.28;5053854;28;20060;-67
2024/02/12 01:35:12;;;;;;;37.58;22.55;;;10.90;99.90;;;11.14;94.04;99697.88;5053550;28;20039;-67
2024/02/12 01:37:41;;;;;;;33.08;22.80;;;10.90;99.90;;;11.15;94.04;99707.53;5053441;28;20406;-67
2024/02/12 01:40:11;;;;;;;33.63;23.35;;;10.90;99.90;;;11.15;93.93;99704.03;5053315;28;20072;-67
2024/02/12 01:42:41;;;;;;;39.25;23.95;;;10.90;99.90;;;11.07;94.12;99696.25;5053143;28;20044;-67
2024/02/12 01:45:13;;;;;;;36.77;23.23;;;10.80;99.90;;;10.92;94.11;99707.22;5053016;28;20445;-67
2024/02/12 01:47:46;;;;;;;36.75;22.58;;;10.60;99.90;;;10.86;94.45;99694.16;5052887;28;20448;-67
2024/02/12 01:50:15;;;;;;;33.85;22.88;;;10.50;99.90;;;10.81;94.76;99701.34;5052788;28;20052;-67
2024/02/12 01:52:48;;;;;;;35.85;23.67;;;10.50;99.90;;;10.85;94.71;99713.59;5052684;28;20045;-67
2024/02/12 01:55:21;;;;;;;37.38;23.55;;;10.50;99.90;;;10.73;94.77;99692.72;5052668;28;20069;-67
2024/02/12 01:57:51;;;;;;;40.58;24.42;;;10.50;99.90;;;10.74;94.82;99718.28;5034624;28;20061;-67
2024/02/12 02:00:23;;;;;;;39.28;24.38;;;10.50;99.90;;;10.78;94.80;99715.50;5052600;28;20045;-67
2024/02/12 02:03:05;;;;;;;40.67;24.88;;;10.40;99.90;;;10.77;94.94;99720.84;5034870;28;20136;-67
2024/02/12 02:05:33;;;;;;;40.33;24.27;;;10.40;99.90;;;10.79;95.18;99724.31;5053071;28;20107;-67
2024/02/12 02:08:02;;;;;;;38.50;23.98;;;10.40;99.90;;;10.78;95.22;99733.16;5034905;28;20139;-67
2024/02/12 02:10:30;;;;;;;40.60;25.20;;;10.50;99.90;;;10.75;95.10;99733.22;5052476;28;20048;-67
2024/02/12 02:13:00;;;;;;;35.30;23.30;;;10.40;99.90;;;10.71;95.15;99739.50;5053138;28;20056;-67
2024/02/12 02:15:29;;;;;;;40.17;25.17;;;10.40;99.90;;;10.66;94.67;99739.63;5052770;28;20059;-67
2024/02/12 02:17:57;;;;;;;35.65;23.88;;;10.40;99.90;;;10.64;94.84;99737.91;5052696;28;20033;-67
2024/02/12 02:20:26;;;;;;;40.05;25.10;;;10.30;99.90;;;9.96;94.88;99624.00;5052534;28;20140;-67
2024/02/12 02:22:55;;;;;;;37.97;23.77;;;10.30;99.90;;;10.68;95.01;99739.56;5053934;28;20122;-67
2024/02/12 02:25:25;;;;;;;36.63;23.30;;;10.30;99.90;;;10.70;95.00;99746.53;5057004;28;20788;-67
2024/02/12 02:27:54;;;;;;;39.77;23.60;;;10.40;99.90;;;10.69;95.17;99741.28;5056628;28;20060;-67
2024/02/12 02:30:22;;;;;;;35.20;23.55;;;10.40;99.90;;;10.72;94.88;99749.19;5057031;28;20056;-67
2024/02/12 02:32:52;;;;;;;36.42;23.38;;;10.40;99.90;;;10.70;94.76;99751.00;5039571;28;20044;-67
2024/02/12 02:35:20;;;;;;;37.30;23.73;;;10.40;99.90;;;10.71;94.84;99753.59;5056194;28;20171;-67
2024/02/12 02:37:49;;;;;;;37.22;24.38;;;10.40;99.90;;;10.70;94.84;99758.91;5056346;28;20275;-67
2024/02/12 02:40:18;;;;;;;35.65;22.83;;;10.40;99.90;;;10.65;94.94;99769.59;5056648;28;20049;-67
2024/02/12 02:42:47;;;;;;;38.97;24.10;;;10.30;99.90;;;10.66;95.01;99763.41;5038487;28;20053;-67
2024/02/12 02:45:16;;;;;;;39.38;24.02;;;10.40;99.90;;;10.64;95.08;99762.56;5056882;28;20086;-67
2024/02/12 02:47:44;;;;;;;38.60;24.60;;;10.40;99.90;;;10.64;95.21;99769.63;5056193;28;20060;-67
2024/02/12 02:50:13;;;;;;;44.97;25.48;;;10.30;99.90;;;10.64;95.25;99762.56;5056341;28;20045;-67
2024/02/12 02:52:42;;;;;;;38.83;25.45;;;10.30;99.90;;;10.65;95.19;99760.78;5055977;28;20044;-67
2024/02/12 02:55:11;;;;;;;36.75;24.20;;;10.40;99.90;;;10.68;94.99;99773.94;5038419;28;20395;-67
2024/02/12 02:57:40;;;;;;;42.47;24.73;;;10.40;99.90;;;10.68;94.81;99766.00;5055859;28;20106;-67
2024/02/12 03:00:12;;;;;;;38.15;24.58;;;10.40;99.90;;;10.61;94.99;99761.75;5056495;28;20502;-67
2024/02/12 03:02:42;;;;;;;39.17;23.88;;;10.30;99.90;;;10.64;94.83;99764.34;5056153;28;20064;-67
2024/02/12 03:05:14;;;;;;;42.95;25.17;;;10.30;99.90;;;10.64;94.79;99767.00;5056085;28;20045;-67
2024/02/12 03:07:45;;;;;;;40.70;25.73;;;10.30;99.90;;;10.58;94.84;99768.00;5056141;28;20041;-67
2024/02/12 03:10:14;;;;;;;41.72;25.15;;;10.30;99.90;;;10.54;95.03;99770.72;5055670;28;20045;-67
2024/02/12 03:12:43;;;;;;;41.08;26.05;;;10.30;99.90;;;10.54;95.36;99768.09;5055890;28;20379;-67
2024/02/12 03:15:15;;;;;;;39.80;24.75;;;10.30;99.90;;;10.55;95.45;99768.03;5055575;28;20114;-67
2024/02/12 03:17:46;;;;;;;39.90;26.15;;;10.30;99.90;;;10.58;95.32;99764.47;5055697;28;20052;-67
2024/02/12 03:20:17;;;;;;;41.47;26.40;;;10.30;99.90;;;10.58;95.34;99765.34;5056119;28;20116;-67
2024/02/12 03:22:46;;;;;;;40.90;25.40;;;10.30;99.90;;;10.54;95.19;99754.88;5055569;28;20136;-67
2024/02/12 03:25:15;;;;;;;44.35;25.80;;;10.30;99.90;;;10.61;95.12;99770.56;5055560;28;20043;-67
2024/02/12 03:27:44;;;;;;;35.03;24.83;;;10.30;99.90;;;10.62;95.35;99774.97;5037848;28;20063;-67
2024/02/12 03:30:15;;;;;;;42.63;25.45;;;10.30;99.90;;;10.57;95.16;99765.38;5037803;28;20075;-67
2024/02/12 03:32:44;;;;;;;38.72;23.23;;;10.30;99.90;;;10.59;95.37;99774.13;5055310;28;20044;-67
2024/02/12 03:35:12;;;;;;;36.75;24.45;;;10.30;99.90;;;10.58;95.60;99775.06;5054878;28;20049;-67
2024/02/12 03:37:42;;;;;;;39.85;23.88;;;10.30;99.90;;;10.59;95.49;99774.13;5055822;28;20048;-67
2024/02/12 03:40:13;;;;;;;40.22;25.08;;;10.40;99.90;;;10.62;95.74;99785.53;5055365;28;20059;-67
2024/02/12 03:42:42;;;;;;;36.38;23.83;;;10.30;99.90;;;10.66;95.90;99781.94;5037529;28;20037;-67
2024/02/12 03:45:13;;;;;;;38.95;23.33;;;10.40;99.90;;;10.65;96.05;99784.56;5055007;28;20118;-67
2024/02/12 03:47:44;;;;;;;36.70;23.92;;;10.40;99.90;;;10.68;96.10;99785.38;5055036;28;20052;-67
2024/02/12 04:01:26;;;;;;;36.53;23.98;;;10.50;99.90;;;10.81;96.75;99785.97;5054703;28;20075;-67
2024/02/12 04:03:56;;;;;;;33.45;23.08;;;10.50;99.90;;;10.79;96.89;99793.97;5036994;28;20127;-67
2024/02/12 04:06:24;;;;;;;37.15;23.83;;;10.50;99.90;;;10.82;97.04;99807.09;5054670;28;20037;-67
2024/02/12 04:08:53;;;;;;;38.17;25.05;;;10.50;99.90;;;10.80;96.89;99805.41;5054712;28;20083;-67
2024/02/12 04:11:23;;;;;;;38.75;25.88;;;10.50;99.90;;;10.83;97.05;99806.22;5036870;28;20052;-67
2024/02/12 04:13:54;;;;;;;40.40;25.30;;;10.50;99.90;;;10.85;96.94;99814.09;5054557;28;20053;-67
2024/02/12 04:16:23;;;;;;;39.22;22.92;;;10.60;99.90;;;10.86;97.08;99815.84;5054907;28;20045;-67
2024/02/12 04:18:52;;;;;;;35.25;21.88;;;10.60;99.90;;;10.85;97.08;99816.75;5054500;28;20087;-67
2024/02/12 04:21:22;;;;;;;37.65;22.10;;;10.60;99.90;;;10.84;97.21;99825.56;5054716;28;20045;-67
2024/02/12 04:23:52;;;;;;;32.30;21.35;;;10.60;99.90;;;10.76;97.65;99824.91;5054383;28;20064;-67
2024/02/12 04:26:21;;;;;;;36.40;19.15;;;10.50;99.90;;;10.72;97.88;99828.50;5054761;28;20075;-67
2024/02/12 04:28:50;;;;;;;28.10;17.25;;;10.50;99.90;;;10.71;98.13;99825.00;5054243;28;20087;-67
2024/02/12 04:31:18;;;;;;;29.70;18.90;;;10.50;99.90;;;10.73;97.95;99833.75;5054743;28;20122;-67
2024/02/12 04:33:46;;;;;;;24.38;16.35;;;10.50;99.90;;;10.71;98.05;99834.69;5054197;28;20111;-67
2024/02/12 04:36:16;;;;;;;27.75;16.65;;;10.50;99.90;;;10.68;98.08;99837.41;5054333;28;20483;-67
2024/02/12 04:38:46;;;;;;;28.42;16.55;;;10.40;99.90;;;10.70;98.38;99844.38;5054025;28;20045;-67
2024/02/12 04:41:14;;;;;;;22.87;16.33;;;10.40;99.90;;;10.74;98.41;99842.56;5054306;28;20044;-67
2024/02/12 04:43:45;;;;;;;23.80;15.95;;;10.40;99.90;;;10.75;98.23;99845.19;5054102;28;20051;-67
2024/02/12 04:46:14;;;;;;;26.10;15.98;;;10.40;99.90;;;10.76;98.11;99846.91;5053107;28;20482;-67
2024/02/12 04:48:42;;;;;;;25.63;16.33;;;10.50;99.90;;;10.65;98.16;99824.25;5053784;28;20055;-67
2024/02/12 04:51:11;;;;;;;21.80;14.77;;;10.50;99.90;;;10.79;98.09;99849.50;5053721;28;20036;-67
2024/02/12 04:53:39;;;;;;;19.42;14.45;;;10.50;99.90;;;10.82;97.89;99854.72;5543616;22;20061;-62
2024/02/12 04:56:10;;;;;;;25.48;15.43;;;10.60;99.90;;;10.86;97.82;99858.16;5053586;28;20045;-61
2024/02/12 04:58:38;;;;;;;23.17;14.87;;;10.60;99.90;;;10.83;97.68;99853.81;5035655;28;20049;-61
2024/02/12 05:01:07;;;;;;;21.63;13.95;;;10.60;99.90;;;10.87;97.73;99855.50;5053121;28;20284;-61
2024/02/12 05:03:37;;;;;;;21.55;12.80;;;10.60;99.90;;;10.85;97.56;99852.03;5053130;28;20128;-61
2024/02/12 05:06:06;;;;;;;21.95;13.98;;;10.60;99.90;;;10.93;97.12;99859.78;5053324;28;20055;-62
2024/02/12 05:08:35;;;;;;;20.70;12.88;;;10.70;99.90;;;10.95;97.21;99860.63;5052789;28;20069;-61
2024/02/12 05:11:04;;;;;;;19.45;12.40;;;10.70;99.90;;;10.95;96.96;99862.38;5052743;28;20409;-61
2024/02/12 05:13:35;;;;;;;23.50;12.88;;;10.70;99.90;;;11.01;96.62;99863.13;5052461;28;20045;-61
2024/02/12 05:16:07;;;;;;;19.38;11.45;;;10.70;99.90;;;11.01;96.27;99862.25;5035012;28;20041;-61
2024/02/12 05:24:20;;;;;;;16.95;10.98;;;10.80;99.90;;;10.90;95.58;99860.72;5045727;28;20122;-61
2024/02/12 05:26:48;;;;;;;14.95;10.43;;;10.70;99.90;;;10.96;95.42;99880.88;5052459;28;20072;-61
2024/02/12 05:29:18;;;;;;;15.90;10.15;;;10.70;99.90;;;10.94;95.35;99879.19;5052857;28;20127;-61
2024/02/12 05:31:48;;;;;;;16.85;10.48;;;10.70;99.90;;;10.93;95.22;99885.34;5052484;28;20149;-61
2024/02/12 05:34:20;;;;;;;16.73;10.82;;;10.70;99.90;;;10.87;94.88;99878.44;5052550;28;20472;-61
2024/02/12 05:36:48;;;;;;;18.23;10.48;;;10.60;99.90;;;10.87;95.18;99887.25;5052622;28;20049;-61
2024/02/12 05:39:17;;;;;;;19.95;10.55;;;10.60;99.90;;;10.85;94.81;99886.41;5052167;28;20053;-61
2024/02/12 05:41:45;;;;;;;18.48;10.55;;;10.60;99.90;;;10.76;94.85;99878.66;5052481;28;20051;-61
2024/02/12 05:44:14;;;;;;;19.02;10.60;;;10.60;99.90;;;10.80;95.22;99888.25;5052079;28;20049;-61
2024/02/12 05:46:44;;;;;;;20.98;10.70;;;10.50;99.90;;;10.78;95.30;99878.63;5034405;28;20049;-61
2024/02/12 05:49:14;;;;;;;15.43;10.33;;;10.50;99.90;;;10.85;95.25;99882.88;5052016;28;20387;-61
2024/02/12 05:51:43;;;;;;;17.40;11.18;;;10.50;99.90;;;10.84;95.09;99883.75;5052671;28;20048;-61
2024/02/12 05:54:11;;;;;;;18.17;10.70;;;10.50;99.90;;;10.84;95.14;99887.28;5052274;28;20489;-61
2024/02/12 05:56:40;;;;;;;14.65;10.18;;;10.50;99.90;;;10.79;95.07;99889.19;5051750;28;20044;-61
2024/02/12 05:59:11;;;;;;;20.23;10.77;;;10.50;99.90;;;10.72;95.06;99876.13;5033940;28;20405;-63
2024/02/12 06:01:41;;;;;;;17.33;10.98;;;10.50;99.90;;;10.60;94.99;99857.84;5052252;28;20045;-61
2024/02/12 06:04:10;;;;;;;16.88;10.75;;;10.50;99.90;;;10.75;95.41;99892.78;5051841;28;20414;-61
2024/02/12 06:06:39;;;;;;;16.73;10.43;;;10.40;99.90;;;10.74;95.04;99888.38;5052231;28;20151;-61
2024/02/12 06:09:08;;;;;;;20.98;10.55;;;10.50;99.90;;;10.75;95.11;99902.47;5051864;28;20486;-61
2024/02/12 06:11:37;;;;;;;15.68;10.00;;;10.40;99.90;;;10.70;95.09;99902.56;5052081;28;20049;-61
2024/02/12 06:14:07;;;;;;;17.10;10.60;;;10.40;99.90;;;10.63;95.06;99897.44;5051769;28;20549;-61
2024/02/12 06:16:37;;;;;;;18.05;10.60;;;10.40;99.90;;;10.03;94.94;99812.28;5051877;28;20444;-62
2024/02/12 06:19:07;;;;;;;17.25;10.57;;;10.30;99.90;;;10.49;94.83;99910.09;5051782;28;20488;-63
2024/02/12 06:21:37;;;;;;;15.40;10.25;;;10.20;99.90;;;10.45;94.90;99906.59;5052083;28;20448;-64
2024/02/12 06:24:06;;;;;;;14.85;10.48;;;10.10;99.90;;;10.41;94.83;99912.00;5051986;28;20063;-62
2024/02/12 06:26:35;;;;;;;15.23;10.02;;;10.10;99.90;;;10.37;95.02;99905.03;5051718;28;20049;-62
2024/02/12 06:29:04;;;;;;;16.67;10.63;;;10.10;99.90;;;10.22;95.13;99889.47;5051825;28;20037;-62
2024/02/12 06:31:32;;;;;;;14.35;9.93;;;10.10;99.90;;;10.35;95.17;99914.75;5051691;28;20044;-62
2024/02/12 06:34:01;;;;;;;15.32;9.75;;;10.10;99.90;;;10.31;95.30;99915.72;5051728;28;20045;-61
2024/02/12 06:36:29;;;;;;;13.85;9.95;;;10.10;99.90;;;10.32;95.49;99930.66;5051969;28;20359;-62
2024/02/12 06:38:59;;;;;;;13.13;10.27;;;10.00;99.90;;;10.33;95.69;99925.38;5051780;28;20494;-62
2024/02/12 06:41:30;;;;;;;15.95;9.40;;;10.00;99.90;;;9.60;95.35;99814.81;5051635;28;20040;-62
2024/02/12 06:43:59;;;;;;;16.30;10.00;;;10.00;99.90;;;10.32;95.76;99933.28;5050300;28;20406;-62
2024/02/12 06:46:28;;;;;;;19.38;10.75;;;10.00;99.90;;;10.36;95.65;99945.56;5051603;28;20055;-62
2024/02/12 06:48:56;;;;;;;16.92;10.52;;;10.00;99.90;;;10.32;95.59;99942.09;5051641;28;20045;-62
2024/02/12 06:51:25;;;;;;;16.23;10.30;;;10.00;99.90;;;10.30;95.92;99941.25;5051532;28;20496;-63
2024/02/12 06:53:53;;;;;;;19.25;10.25;;;10.00;99.90;;;10.12;95.77;99916.94;5051722;28;20140;-62
2024/02/12 06:56:23;;;;;;;14.50;10.57;;;10.00;99.90;;;10.30;95.63;99948.34;5051842;28;20095;-62
2024/02/12 06:58:51;;;;;;;18.03;11.07;;;10.00;99.90;;;9.78;95.79;99861.16;5052072;28;20056;-61
2024/02/12 07:01:20;;;;;;;17.65;11.02;;;10.00;99.90;;;10.31;96.01;99963.28;5052235;28;20679;-62
2024/02/12 07:03:49;;;;;;;16.42;10.55;;;10.00;99.90;;;10.28;95.80;99968.63;5051846;28;20391;-66
2024/02/12 07:06:18;;;;;;;17.60;10.68;;;10.00;99.90;;;10.24;95.81;99961.66;5051248;28;20382;-61
2024/02/12 07:08:47;;;;;;;16.17;10.73;;;10.00;99.90;;;10.22;96.02;99963.47;5052331;28;20067;-64
2024/02/12 07:11:15;;;;;;;19.05;10.60;;;9.90;99.90;;;10.21;95.85;99972.28;5054909;28;20095;-61
2024/02/12 07:13:46;;;;;;;20.25;11.30;;;9.90;99.90;;;10.18;95.91;99974.97;5055357;28;20061;-61
2024/02/12 07:16:17;;;;;;;16.13;10.60;;;9.90;99.90;;;10.14;95.72;99970.63;5055362;28;20457;-63
2024/02/12 07:18:46;;;;;;;20.63;10.25;;;9.90;99.90;;;10.10;95.78;99975.13;5055061;28;20279;-60
2024/02/12 07:21:15;;;;;;;19.40;10.73;;;9.80;99.90;;;10.09;96.01;99980.34;5055320;28;20052;-64
2024/02/12 07:23:44;;;;;;;19.75;10.48;;;9.80;99.90;;;10.07;96.05;99985.69;5054986;28;20456;-61
2024/02/12 07:26:12;;;;;;;16.15;10.07;;;9.80;99.90;;;10.09;95.91;99991.81;5054650;28;20049;-60
2024/02/12 07:28:41;;;;;;;16.20;9.88;;;9.80;99.90;;;10.06;95.79;99991.88;5055290;28;20049;-61
2024/02/12 07:31:11;;;;;;;17.13;9.98;;;9.80;99.90;;;10.08;95.52;99992.72;5054926;28;20079;-63
2024/02/12 07:33:39;;;;;;;18.05;9.98;;;9.80;99.90;;;10.20;95.57;100002.25;5055304;28;20057;-61
2024/02/12 07:36:09;;;;;;;20.48;10.40;;;9.90;99.90;;;10.34;95.91;100002.84;5053588;28;20548;-62
2024/02/12 07:38:37;;;;;;;16.27;10.23;;;10.00;99.90;;;10.54;95.41;100016.59;5054656;28;20437;-62
2024/02/12 07:41:08;;;;;;;14.70;9.52;;;10.20;99.90;;;10.70;94.88;100018.09;5054768;28;20053;-63
2024/02/12 07:43:38;;;;;;;16.95;9.73;;;10.40;99.90;;;10.92;94.44;100021.19;5054779;28;20118;-61
2024/02/12 07:46:06;;;;;;;14.45;9.55;;;10.60;99.90;;;11.11;93.42;100022.56;5052729;28;20052;-62
2024/02/12 07:48:41;;;;;;;16.58;9.43;;;10.80;99.90;;;11.26;92.90;100012.53;5053155;28;20064;-63
2024/02/12 07:51:11;;;;;;;16.60;10.40;;;11.00;99.90;;;11.60;92.03;100029.44;5053157;28;20037;-63
2024/02/12 07:53:40;;;;;;;21.60;10.02;;;11.30;99.90;;;11.87;90.74;100043.00;5053099;28;20053;-62
2024/02/12 07:56:09;;;;;;;20.75;10.00;;;11.60;99.90;;;12.12;89.91;100049.47;5052812;28;20407;-62
2024/02/12 07:58:38;;;;;;;15.93;9.40;;;11.80;99.90;;;12.36;88.57;100063.03;5053004;28;20036;-62
2024/02/12 08:01:07;;;;;;;14.48;8.82;;;12.10;99.90;;;12.57;87.49;100065.13;5052596;28;20049;-62
2024/02/12 08:03:39;;;;;;;15.90;8.50;;;12.30;99.90;;;12.72;85.97;100047.94;5052835;28;20048;-62
2024/02/12 08:06:08;;;;;;;16.88;8.30;;;12.60;99.90;;;13.09;85.00;100072.63;5052682;28;20445;-62
2024/02/12 08:08:37;;;;;;;15.40;7.97;;;12.90;99.90;;;13.42;83.48;100076.09;5052243;28;20036;-61
2024/02/12 08:11:07;;;;;;;15.38;8.10;;;13.20;99.90;;;13.75;82.50;100071.59;5052219;28;20049;-63
2024/02/12 08:13:35;;;;;;;16.83;8.45;;;13.60;99.90;;;14.08;80.99;100073.22;5034753;28;20536;-63
2024/02/12 08:16:05;;;;;;;16.00;7.75;;;14.00;99.90;;;14.48;79.29;100076.38;5052115;28;20052;-64
2024/02/12 08:18:33;;;;;;;13.18;7.18;;;14.30;99.90;;;14.86;77.70;100089.28;5052347;28;20052;-62
2024/02/12 08:21:03;;;;;;;10.15;7.43;;;14.70;99.90;;;15.20;76.03;100095.16;5051818;28;20049;-62
2024/02/12 08:23:32;;;;;;;12.35;7.22;;;15.00;99.90;;;15.55;75.02;100101.91;5051899;28;20060;-62
2024/02/12 08:26:00;;;;;;;17.63;7.28;;;15.40;99.90;;;15.80;73.78;100078.72;5051684;28;20036;-65
2024/02/12 08:28:29;;;;;;;13.65;6.85;;;15.80;99.90;;;16.27;72.51;100103.56;5051883;28;20057;-60
2024/02/12 08:30:58;;;;;;;13.75;7.00;;;16.10;99.90;;;16.53;70.68;100110.56;5051702;28;20111;-65
2024/02/12 08:33:29;;;;;;;13.77;6.70;;;16.40;99.90;;;16.75;69.80;100116.72;5051988;28;20052;-63
2024/02/12 08:35:58;;;;;;;11.60;6.90;;;16.60;99.90;;;16.96;68.92;100122.03;5051799;28;20394;-61
2024/02/12 08:38:28;;;;;;;16.45;6.65;;;16.80;99.90;;;17.14;68.07;100121.28;5051426;28;20068;-62
2024/02/12 08:40:57;;;;;;;12.95;6.10;;;17.00;99.90;;;17.23;67.30;100130.69;5051968;28;20212;-61
2024/02/12 08:43:25;;;;;;;10.15;6.40;;;17.10;99.90;;;17.26;66.36;100119.00;5051413;28;20052;-63
2024/02/12 08:45:54;;;;;;;10.38;5.55;;;17.10;99.90;;;17.37;66.03;100127.41;5051871;28;20076;-62
2024/02/12 08:48:22;;;;;;;11.20;5.70;;;17.20;99.90;;;17.46;65.36;100127.88;5033635;28;20406;-63
2024/02/12 08:50:51;;;;;;;9.48;6.15;;;17.30;99.90;;;17.46;64.94;100138.56;5051517;28;20045;-64
2024/02/12 08:53:19;;;;;;;11.80;5.88;;;17.20;99.90;;;17.60;64.39;100140.66;5051221;28;20536;-62
2024/02/12 08:55:49;;;;;;;14.70;5.93;;;17.30;99.90;;;17.64;64.06;100140.47;5051407;28;20354;-64
2024/02/12 08:58:18;;;;;;;9.60;5.40;;;17.40;99.90;;;17.74;63.70;100148.94;5033620;28;20406;-64
2024/02/12 09:00:46;;;;;;;10.20;5.45;;;17.40;99.90;;;17.81;63.26;100155.75;5033511;28;20296;-62
2024/02/12 09:03:15;;;;;;;13.27;5.65;;;17.60;99.90;;;17.94;63.03;100157.78;5050934;28;20080;-63
2024/02/12 09:05:43;;;;;;;13.45;6.18;;;17.70;99.90;;;17.91;62.19;100160.63;5051066;28;20040;-63
2024/02/12 09:08:12;;;;;;;14.45;5.20;;;17.70;99.90;;;17.61;62.00;100169.16;5050973;28;20037;-62
2024/02/12 09:10:42;;;;;;;13.68;5.47;;;17.50;99.90;;;17.24;62.84;100169.84;5051098;28;20049;-62
2024/02/12 09:13:11;;;;;;;13.25;5.55;;;17.10;99.90;;;16.80;63.57;100165.50;5050504;28;20544;-63
2024/02/12 09:15:40;;;;;;;12.43;5.47;;;16.70;99.90;;;16.41;64.71;100165.28;5033108;28;20053;-61
2024/02/12 09:18:11;;;;;;;8.70;5.35;;;16.10;99.90;;;15.88;65.79;100164.66;5050961;28;20064;-61
2024/02/12 09:20:43;;;;;;;13.73;5.60;;;15.70;99.90;;;15.47;67.01;100167.06;5050920;28;20052;-65
2024/02/12 09:23:11;;;;;;;12.18;6.38;;;15.20;99.90;;;15.14;68.17;100169.97;5050738;28;20413;-64
2024/02/12 09:25:40;;;;;;;11.63;6.13;;;14.90;99.90;;;15.05;69.57;100175.59;5051353;28;20453;-60
2024/02/12 09:28:09;;;;;;;14.70;6.30;;;14.70;99.90;;;14.79;70.39;100177.41;5052511;28;20053;-64
2024/02/12 09:30:39;;;;;;;13.13;5.55;;;14.40;99.90;;;14.67;71.41;100177.78;5051053;28;20037;-62
2024/02/12 09:33:10;;;;;;;13.37;5.70;;;14.30;99.90;;;14.34;72.25;100185.03;5050377;28;20413;-62
2024/02/12 09:35:39;;;;;;;11.18;5.75;;;14.10;99.90;;;14.25;73.29;100185.25;5050672;28;20521;-63
2024/02/12 09:38:08;;;;;;;12.80;6.25;;;13.90;99.90;;;14.11;73.99;100192.81;5050422;28;20037;-62
2024/02/12 09:40:41;;;;;;;10.77;5.55;;;13.80;99.90;;;13.91;75.19;100195.16;5050470;28;20051;-62
2024/02/12 09:43:10;;;;;;;13.43;5.82;;;13.60;99.90;;;13.87;75.81;100198.81;5050417;28;20094;-63
2024/02/12 09:45:46;;;;;;;10.13;5.53;;;13.50;99.90;;;13.78;75.92;100201.75;5050194;28;20487;-61
2024/02/12 09:48:15;;;;;;;12.77;5.93;;;13.40;99.90;;;13.57;76.56;100198.75;5050342;28;20604;-63
2024/02/12 09:50:46;;;;;;;10.40;5.57;;;13.30;99.90;;;13.51;77.37;100206.91;5050151;28;20110;-62
2024/02/12 09:53:18;;;;;;;11.73;5.57;;;13.20;99.90;;;13.46;78.03;100215.91;5050117;28;20056;-64
2024/02/12 09:55:48;;;;;;;13.50;5.78;;;13.10;99.90;;;12.90;78.52;100113.81;5050035;28;20052;-63
2024/02/12 09:58:18;;;;;;;9.75;5.75;;;13.10;99.90;;;13.52;78.46;100223.72;5049996;28;20044;-62
2024/02/12 10:00:48;;;;;;;10.10;5.32;;;13.20;99.90;;;13.52;78.87;100221.94;5032428;28;20587;-62
2024/02/12 10:03:17;;;;;;;14.18;5.50;;;13.20;99.90;;;13.52;78.61;100229.91;5050174;28;20045;-62
2024/02/12 10:05:46;;;;;;;11.35;5.60;;;13.20;99.90;;;13.49;77.76;100234.44;5049760;28;20056;-62
2024/02/12 10:08:22;;;;;;;12.27;6.00;;;13.20;99.90;;;13.51;77.60;100244.09;5049769;28;20410;-66
2024/02/12 10:10:53;;;;;;;11.35;5.75;;;13.20;99.90;;;13.52;78.24;100242.31;5050452;28;20356;-65
2024/02/12 10:13:23;;;;;;;16.35;5.75;;;13.20;99.90;;;13.43;78.28;100243.41;5049934;28;20088;-65
2024/02/12 10:15:53;;;;;;;;;;;13.20;99.90;;;13.36;78.59;100241.84;5032696;28;20122;-62
2024/02/12 10:18:21;;;;;;;13.68;5.60;;;13.10;99.90;;;13.28;78.71;100250.91;5050068;28;20419;-62
2024/02/12 10:20:50;;;;;;;10.52;5.13;;;13.00;99.90;;;13.41;78.71;100261.19;5049759;28;20041;-62
2024/02/12 10:23:19;;;;;;;13.88;6.05;;;13.10;99.90;;;13.23;79.22;100224.50;5032087;28;20055;-62
2024/02/12 10:25:51;;;;;;;12.50;5.93;;;13.10;99.90;;;13.52;79.44;100261.81;5049885;28;20132;-63
2024/02/12 10:28:21;;;;;;;13.73;6.28;;;13.20;99.90;;;13.57;80.04;100259.88;5049711;28;20076;-63
2024/02/12 10:30:50;;;;;;;14.02;5.97;;;13.30;99.90;;;13.48;80.36;100238.00;5049740;28;20070;-63
2024/02/12 10:33:20;;;;;;;14.40;5.70;;;13.30;99.90;;;13.84;80.24;100271.56;5050277;28;20057;-65